createdAt,value
2019-06-04T00:01:19.990Z,23.40
2019-06-04T00:03:30.870Z,23.50
2019-06-04T00:05:58.362Z,23.50
2019-06-04T00:08:25.990Z,23.50
2019-06-04T00:10:54.444Z,23.50
2019-06-04T00:13:22.080Z,23.40
2019-06-04T00:15:49.632Z,23.30
2019-06-04T00:18:17.434Z,23.40
2019-06-04T00:20:45.297Z,23.40
2019-06-04T00:23:12.817Z,23.30
2019-06-04T00:25:40.286Z,23.30
2019-06-04T00:28:07.760Z,23.20
2019-06-04T00:30:35.253Z,20.20
2019-06-04T00:33:04.330Z,23.10
2019-06-04T00:35:31.902Z,23.10
2019-06-04T00:38:00.676Z,23.10
2019-06-04T00:40:30.620Z,23.10
2019-06-04T00:42:58.614Z,23.10
2019-06-04T00:45:26.411Z,23.10
2019-06-04T00:47:53.830Z,23.10
2019-06-04T00:50:21.245Z,23.00
2019-06-04T00:52:48.700Z,23.00
2019-06-04T00:55:35.731Z,23.00
2019-06-04T00:58:05.011Z,22.90
2019-06-04T01:00:35.375Z,22.90
2019-06-04T01:03:03.915Z,22.90
2019-06-04T01:05:31.612Z,22.80
2019-06-04T01:07:59.360Z,22.80
2019-06-04T01:10:26.968Z,22.70
2019-06-04T01:12:54.484Z,22.70
2019-06-04T01:15:25.502Z,22.70
2019-06-04T01:17:52.011Z,22.70
2019-06-04T01:20:40.296Z,22.60
2019-06-04T01:23:09.388Z,22.50
2019-06-04T01:25:37.457Z,22.60
2019-06-04T01:28:05.738Z,19.30
2019-06-04T01:30:33.365Z,22.50
2019-06-04T01:33:01.991Z,21.00
2019-06-04T01:35:29.545Z,20.10
2019-06-04T01:37:56.955Z,22.50
2019-06-04T01:40:24.332Z,22.50
2019-06-04T01:42:51.765Z,22.50
2019-06-04T01:45:19.319Z,22.40
2019-06-04T01:47:46.891Z,22.20
2019-06-04T01:50:14.457Z,22.40
2019-06-04T01:52:41.980Z,22.40
2019-06-04T01:55:10.734Z,20.90
2019-06-04T01:57:38.733Z,22.30
2019-06-04T02:00:16.671Z,22.30
2019-06-04T02:02:35.798Z,22.30
2019-06-04T02:05:03.707Z,22.00
2019-06-04T02:07:31.403Z,22.30
2019-06-04T02:09:58.782Z,22.20
2019-06-04T02:12:26.309Z,22.20
2019-06-04T02:14:53.704Z,22.20
2019-06-04T02:17:21.156Z,22.10
2019-06-04T02:19:48.643Z,22.10
2019-06-04T02:22:16.075Z,22.10
2019-06-04T02:24:43.465Z,22.10
2019-06-04T02:27:10.865Z,22.10
2019-06-04T02:29:38.349Z,22.00
2019-06-04T02:32:06.604Z,22.00
2019-06-04T02:34:34.439Z,21.90
2019-06-04T02:37:01.941Z,22.90
2019-06-04T02:39:29.417Z,21.90
2019-06-04T02:41:56.881Z,20.40
2019-06-04T02:44:24.409Z,21.90
2019-06-04T02:46:54.980Z,21.90
2019-06-04T02:49:23.849Z,21.80
2019-06-04T02:51:53.579Z,21.80
2019-06-04T02:54:24.644Z,21.80
2019-06-04T02:56:53.958Z,21.70
2019-06-04T02:59:22.316Z,21.70
2019-06-04T03:01:49.801Z,21.60
2019-06-04T03:04:17.148Z,21.60
2019-06-04T03:06:44.491Z,21.60
2019-06-04T03:09:13.116Z,21.50
2019-06-04T03:11:40.768Z,21.50
2019-06-04T03:14:09.478Z,21.40
2019-06-04T03:16:37.109Z,21.50
2019-06-04T03:19:04.556Z,21.50
2019-06-04T03:21:32.108Z,21.50
2019-06-04T03:23:59.585Z,19.80
2019-06-04T03:26:27.046Z,21.40
2019-06-04T03:28:54.499Z,21.40
2019-06-04T03:31:25.503Z,21.40
2019-06-04T03:33:58.115Z,21.40
2019-06-04T03:36:20.927Z,21.40
2019-06-04T03:38:48.384Z,21.30
2019-06-04T03:41:15.817Z,21.30
2019-06-04T03:43:43.242Z,21.30
2019-06-04T03:46:10.698Z,21.20
2019-06-04T03:48:38.120Z,21.20
2019-06-04T03:51:05.488Z,21.20
2019-06-04T03:53:32.933Z,21.20
2019-06-04T03:56:00.379Z,21.10
2019-06-04T03:58:28.512Z,21.10
2019-06-04T04:00:56.062Z,21.10
2019-06-04T04:03:25.125Z,21.00
2019-06-04T04:05:52.746Z,21.00
2019-06-04T04:08:21.370Z,21.00
2019-06-04T04:10:49.421Z,21.00
2019-06-04T04:13:18.655Z,21.00
2019-06-04T04:15:46.253Z,20.90
2019-06-04T04:18:13.602Z,20.90
2019-06-04T04:20:42.289Z,21.00
2019-06-04T04:23:09.948Z,20.90
2019-06-04T04:25:37.644Z,20.90
2019-06-04T04:28:05.027Z,19.30
2019-06-04T04:30:32.568Z,24.40
2019-06-04T04:32:59.949Z,20.90
2019-06-04T04:35:27.442Z,20.90
2019-06-04T04:37:55.080Z,20.90
2019-06-04T04:40:24.392Z,20.90
2019-06-04T04:42:51.947Z,20.80
2019-06-04T04:45:20.387Z,20.90
2019-06-04T04:47:47.904Z,20.90
2019-06-04T04:50:15.361Z,20.90
2019-06-04T04:52:42.864Z,20.90
2019-06-04T04:55:10.363Z,20.90
2019-06-04T04:57:37.799Z,20.90
2019-06-04T05:00:05.476Z,20.90
2019-06-04T05:02:33.123Z,18.90
2019-06-04T05:05:00.880Z,20.90
2019-06-04T05:07:30.436Z,20.90
2019-06-04T05:09:58.471Z,20.90
2019-06-04T05:12:28.498Z,21.00
2019-06-04T05:14:59.297Z,21.00
2019-06-04T05:17:27.505Z,21.00
2019-06-04T05:19:57.477Z,21.10
2019-06-04T05:22:27.573Z,21.10
2019-06-04T05:24:55.247Z,21.20
2019-06-04T05:27:23.729Z,21.20
2019-06-04T05:29:51.397Z,21.30
2019-06-04T05:32:18.855Z,21.30
2019-06-04T05:35:02.952Z,21.40
2019-06-04T05:37:15.744Z,21.40
2019-06-04T05:39:43.200Z,21.50
2019-06-04T05:42:10.623Z,21.30
2019-06-04T05:44:38.167Z,21.60
2019-06-04T05:47:05.650Z,21.60
2019-06-04T05:49:33.123Z,21.70
2019-06-04T05:52:00.490Z,21.70
2019-06-04T05:54:28.890Z,21.80
2019-06-04T05:56:56.382Z,21.90
2019-06-04T05:59:25.568Z,21.80
2019-06-04T06:01:53.465Z,22.00
2019-06-04T06:04:20.985Z,21.90
2019-06-04T06:06:48.428Z,22.10
2019-06-04T06:09:15.855Z,22.10
2019-06-04T06:11:43.244Z,25.00
2019-06-04T06:14:10.745Z,22.30
2019-06-04T06:16:38.244Z,22.30
2019-06-04T06:19:05.975Z,22.40
2019-06-04T06:21:33.547Z,21.10
2019-06-04T06:24:01.016Z,22.60
2019-06-04T06:26:28.979Z,22.70
2019-06-04T06:28:56.463Z,22.80
2019-06-04T06:31:24.492Z,21.50
2019-06-04T06:33:58.055Z,23.00
2019-06-04T06:36:26.737Z,23.70
2019-06-04T06:38:55.937Z,23.20
2019-06-04T06:41:23.583Z,23.30
2019-06-04T06:43:51.124Z,23.40
2019-06-04T06:46:18.535Z,23.50
2019-06-04T06:48:45.950Z,23.70
2019-06-04T06:51:13.436Z,23.80
2019-06-04T06:53:45.168Z,23.90
2019-06-04T06:56:12.778Z,23.80
2019-06-04T06:58:40.303Z,24.10
2019-06-04T07:01:08.112Z,24.10
2019-06-04T07:06:24.025Z,24.20
2019-06-04T07:08:53.558Z,24.30
2019-06-04T07:11:22.434Z,24.40
2019-06-04T07:13:51.093Z,24.40
2019-06-04T07:16:18.745Z,24.50
2019-06-04T07:18:46.088Z,24.40
2019-06-04T07:21:13.542Z,24.60
2019-06-04T07:23:41.845Z,24.70
2019-06-04T07:26:09.884Z,24.70
2019-06-04T07:29:50.866Z,24.90
2019-06-04T07:32:18.472Z,24.90
2019-06-04T07:34:46.091Z,24.90
2019-06-04T07:37:13.586Z,25.10
2019-06-04T07:39:43.573Z,25.20
2019-06-04T07:42:12.998Z,25.20
2019-06-04T07:44:41.011Z,25.30
2019-06-04T07:47:09.014Z,25.50
2019-06-04T07:49:37.495Z,25.60
2019-06-04T07:52:08.925Z,25.70
2019-06-04T07:54:35.599Z,25.80
2019-06-04T07:57:03.133Z,25.90
2019-06-04T07:59:32.179Z,26.00
2019-06-04T08:02:07.825Z,26.10
2019-06-04T08:04:29.222Z,26.10
2019-06-04T08:06:58.796Z,26.30
2019-06-04T08:09:25.942Z,26.40
2019-06-04T08:11:53.388Z,26.50
2019-06-04T08:14:20.799Z,26.00
2019-06-04T08:16:48.260Z,26.80
2019-06-04T08:19:15.719Z,26.90
2019-06-04T08:21:56.596Z,26.90
2019-06-04T08:24:12.555Z,27.20
2019-06-04T08:26:40.473Z,27.30
2019-06-04T08:29:08.080Z,27.40
2019-06-04T08:31:36.383Z,27.50
2019-06-04T08:34:03.866Z,27.70
2019-06-04T08:36:31.486Z,27.90
2019-06-04T08:38:59.012Z,28.10
2019-06-04T08:41:26.690Z,28.10
2019-06-04T08:43:54.165Z,28.30
2019-06-04T08:46:21.701Z,28.60
2019-06-04T08:48:49.307Z,28.90
2019-06-04T08:51:16.807Z,29.50
2019-06-04T08:53:44.550Z,30.30
2019-06-04T08:56:12.557Z,31.30
2019-06-04T08:58:41.621Z,32.50
2019-06-04T09:01:09.254Z,33.80
2019-06-04T09:03:37.687Z,34.80
2019-06-04T09:06:05.294Z,35.90
2019-06-04T09:08:32.874Z,37.00
2019-06-04T09:11:00.279Z,38.10
2019-06-04T09:13:27.742Z,39.00
2019-06-04T09:15:56.426Z,40.00
2019-06-04T09:18:24.340Z,39.60
2019-06-04T09:20:51.874Z,41.70
2019-06-04T09:23:20.034Z,42.40
2019-06-04T09:25:49.805Z,43.20
2019-06-04T09:28:17.067Z,44.00
2019-06-04T09:31:00.257Z,44.70
2019-06-04T09:33:13.975Z,45.40
2019-06-04T09:35:41.738Z,46.10
2019-06-04T09:38:28.608Z,46.70
2019-06-04T09:40:56.105Z,47.30
2019-06-04T09:43:26.948Z,48.10
2019-06-04T09:45:53.013Z,48.70
2019-06-04T09:48:20.428Z,49.20
2019-06-04T09:50:58.327Z,49.80
2019-06-04T09:53:17.208Z,50.30
2019-06-04T09:55:47.546Z,50.80
2019-06-04T09:58:30.870Z,51.40
2019-06-04T10:00:52.679Z,51.90
2019-06-04T10:03:22.763Z,52.30
2019-06-04T10:05:51.890Z,52.60
2019-06-04T10:08:19.988Z,52.80
2019-06-04T10:10:51.450Z,53.10
2019-06-04T10:13:19.516Z,53.30
2019-06-04T10:15:47.206Z,53.40
2019-06-04T10:18:19.627Z,53.30
2019-06-04T10:20:51.695Z,53.00
2019-06-04T10:23:19.373Z,50.60
2019-06-04T10:25:48.522Z,52.00
2019-06-04T10:28:16.002Z,51.20
2019-06-04T10:30:46.007Z,50.40
2019-06-04T10:33:14.320Z,49.50
2019-06-04T10:35:42.063Z,48.50
2019-06-04T10:38:26.220Z,51.20
2019-06-04T10:40:39.023Z,46.90
2019-06-04T10:43:06.521Z,44.70
2019-06-04T10:45:34.010Z,45.30
2019-06-04T10:48:01.480Z,44.50
2019-06-04T10:50:33.623Z,43.90
2019-06-04T10:53:01.514Z,43.30
2019-06-04T10:55:29.864Z,42.70
2019-06-04T10:57:57.438Z,42.00
2019-06-04T11:00:45.885Z,41.50
2019-06-04T11:03:17.707Z,41.10
2019-06-04T11:05:45.290Z,40.70
2019-06-04T11:08:13.099Z,40.20
2019-06-04T11:10:40.791Z,39.90
2019-06-04T11:13:13.984Z,39.40
2019-06-04T11:15:41.334Z,39.30
2019-06-04T11:18:09.318Z,38.80
2019-06-04T11:20:37.850Z,38.50
2019-06-04T11:23:05.379Z,38.30
2019-06-04T11:25:32.801Z,38.00
2019-06-04T11:28:00.665Z,37.70
2019-06-04T11:30:28.058Z,37.60
2019-06-04T11:32:55.805Z,37.30
2019-06-04T11:35:23.239Z,37.20
2019-06-04T11:37:50.565Z,37.00
2019-06-04T11:40:19.244Z,36.80
2019-06-04T11:42:46.679Z,36.60
2019-06-04T11:45:23.999Z,36.50
2019-06-04T11:47:43.720Z,36.30
2019-06-04T11:50:12.486Z,36.10
2019-06-04T11:52:40.181Z,35.90
2019-06-04T11:55:07.847Z,35.70
2019-06-04T11:57:35.480Z,35.50
2019-06-04T12:00:03.405Z,35.50
2019-06-04T12:02:30.853Z,35.40
2019-06-04T12:05:02.330Z,35.20
2019-06-04T12:07:27.666Z,35.10
2019-06-04T12:09:55.116Z,35.00
2019-06-04T12:12:42.804Z,35.00
2019-06-04T12:14:53.356Z,34.90
2019-06-04T12:19:55.657Z,34.90
2019-06-04T12:22:23.073Z,34.90
2019-06-04T12:24:50.470Z,34.80
2019-06-04T12:27:17.761Z,34.80
2019-06-04T12:29:45.171Z,34.80
2019-06-04T12:32:12.493Z,34.80
2019-06-04T12:34:40.165Z,34.60
2019-06-04T12:37:07.481Z,34.70
2019-06-04T12:39:49.976Z,34.60
2019-06-04T12:42:05.246Z,34.60
2019-06-04T12:44:32.736Z,34.50
2019-06-04T12:47:07.549Z,34.50
2019-06-04T12:49:47.939Z,34.50
2019-06-04T12:51:58.884Z,34.50
2019-06-04T12:54:26.503Z,34.50
2019-06-04T12:56:55.042Z,34.50
2019-06-04T12:59:22.966Z,34.50
2019-06-04T13:01:52.973Z,34.50
2019-06-04T13:04:20.597Z,34.60
2019-06-04T13:06:49.239Z,34.60
2019-06-04T13:09:16.566Z,34.60
2019-06-04T13:11:45.019Z,34.60
2019-06-04T13:14:12.400Z,34.70
2019-06-04T13:16:39.852Z,34.70
2019-06-04T13:19:07.160Z,34.70
2019-06-04T13:21:36.646Z,34.70
2019-06-04T13:24:04.910Z,34.80
2019-06-04T13:26:32.903Z,34.70
2019-06-04T13:29:01.342Z,34.80
2019-06-04T13:31:28.744Z,34.80
2019-06-04T13:33:56.126Z,34.80
2019-06-04T13:36:23.482Z,34.80
2019-06-04T13:38:50.878Z,34.80
2019-06-04T13:41:18.300Z,34.70
2019-06-04T13:43:45.567Z,34.70
2019-06-04T13:46:12.876Z,34.70
2019-06-04T13:48:40.228Z,34.70
2019-06-04T13:51:07.826Z,34.60
2019-06-04T13:53:35.285Z,34.60
2019-06-04T13:56:04.148Z,34.60
2019-06-04T13:58:40.100Z,34.60
2019-06-04T14:01:08.152Z,34.60
2019-06-04T14:04:10.498Z,34.60
2019-06-04T14:13:51.090Z,34.70
2019-06-04T14:16:18.737Z,34.70
2019-06-04T14:19:06.492Z,34.70
2019-06-04T14:21:40.118Z,34.70
2019-06-04T14:24:08.706Z,34.80
2019-06-04T14:26:37.286Z,34.80
2019-06-04T14:29:05.415Z,34.80
2019-06-04T14:31:33.018Z,31.40
2019-06-04T14:34:00.405Z,34.80
2019-06-04T14:36:27.868Z,34.80
2019-06-04T14:38:55.374Z,34.80
2019-06-04T14:41:22.910Z,34.80
2019-06-04T14:43:50.497Z,34.80
2019-06-04T14:46:17.965Z,34.80
2019-06-04T14:48:45.444Z,34.80
2019-06-04T14:51:17.167Z,34.80
2019-06-04T14:53:42.472Z,34.80
2019-06-04T14:56:09.943Z,34.60
2019-06-04T14:58:37.399Z,34.70
2019-06-04T15:01:04.885Z,34.70
2019-06-04T15:03:32.639Z,34.70
2019-06-04T15:06:00.092Z,33.30
2019-06-04T15:08:27.632Z,34.70
2019-06-04T15:10:55.113Z,34.70
2019-06-04T15:13:22.621Z,34.70
2019-06-04T15:15:50.212Z,34.70
2019-06-04T15:18:18.471Z,34.60
2019-06-04T15:20:46.250Z,34.60
2019-06-04T15:23:15.384Z,34.60
2019-06-04T15:25:43.055Z,34.10
2019-06-04T15:28:11.299Z,34.60
2019-06-04T15:30:38.854Z,34.50
2019-06-04T15:33:06.296Z,34.50
2019-06-04T15:35:33.933Z,34.40
2019-06-04T15:38:01.618Z,34.40
2019-06-04T15:40:29.082Z,34.30
2019-06-04T15:42:56.815Z,34.30
2019-06-04T15:45:32.512Z,34.30
2019-06-04T15:47:59.970Z,34.20
2019-06-04T15:50:27.499Z,34.20
2019-06-04T15:52:57.376Z,34.10
2019-06-04T15:55:24.743Z,34.10
2019-06-04T15:57:52.327Z,34.00
2019-06-04T16:00:37.644Z,33.90
2019-06-04T16:03:05.793Z,33.90
2019-06-04T16:05:33.438Z,33.80
2019-06-04T16:08:00.942Z,33.70
2019-06-04T16:10:30.487Z,33.70
2019-06-04T16:12:57.709Z,33.60
2019-06-04T16:15:25.577Z,33.60
2019-06-04T16:17:53.166Z,33.50
2019-06-04T16:20:39.547Z,33.50
2019-06-04T16:23:07.247Z,33.40
2019-06-04T16:25:34.748Z,33.30
2019-06-04T16:28:14.218Z,33.30
2019-06-04T16:30:42.476Z,33.20
2019-06-04T16:33:10.081Z,33.10
2019-06-04T16:35:37.586Z,33.10
2019-06-04T16:38:05.841Z,33.00
2019-06-04T16:40:33.530Z,32.80
2019-06-04T16:43:02.907Z,32.80
2019-06-04T16:45:30.606Z,32.80
2019-06-04T16:47:58.313Z,32.70
2019-06-04T16:50:26.751Z,32.60
2019-06-04T16:52:54.523Z,29.70
2019-06-04T16:55:23.142Z,32.50
2019-06-04T16:57:50.938Z,32.40
2019-06-04T17:00:19.828Z,32.30
2019-06-04T17:02:50.474Z,32.30
2019-06-04T17:05:18.059Z,32.10
2019-06-04T17:07:48.334Z,30.70
2019-06-04T17:10:38.312Z,32.00
2019-06-04T17:13:10.600Z,29.90
2019-06-04T17:15:39.288Z,31.80
2019-06-04T17:18:08.720Z,31.70
2019-06-04T17:20:36.823Z,31.70
2019-06-04T17:23:04.939Z,31.60
2019-06-04T17:25:32.806Z,31.50
2019-06-04T17:28:00.425Z,31.50
2019-06-04T17:30:28.157Z,31.40
2019-06-04T17:32:56.032Z,31.40
2019-06-04T17:35:24.413Z,31.30
2019-06-04T17:37:51.986Z,31.40
2019-06-04T17:40:22.384Z,31.20
2019-06-04T17:43:04.541Z,31.20
2019-06-04T17:45:18.461Z,31.30
2019-06-04T17:47:46.115Z,29.80
2019-06-04T17:50:14.088Z,30.90
2019-06-04T17:52:41.706Z,31.00
2019-06-04T17:55:11.586Z,30.90
2019-06-04T17:57:41.062Z,30.90
2019-06-04T18:00:09.824Z,30.80
2019-06-04T18:02:37.379Z,30.80
2019-06-04T18:05:05.169Z,29.90
2019-06-04T18:07:33.041Z,30.70
2019-06-04T18:10:00.567Z,30.70
2019-06-04T18:12:28.918Z,30.60
2019-06-04T18:14:56.469Z,30.50
2019-06-04T18:17:23.990Z,30.50
2019-06-04T18:19:51.525Z,29.20
2019-06-04T18:22:19.060Z,30.40
2019-06-04T18:24:46.466Z,30.40
2019-06-04T18:27:13.855Z,30.30
2019-06-04T18:29:42.244Z,30.30
2019-06-04T18:32:09.730Z,30.30
2019-06-04T18:34:37.556Z,30.20
2019-06-04T18:37:05.053Z,30.10
2019-06-04T18:39:36.614Z,30.10
2019-06-04T18:42:04.149Z,30.00
2019-06-04T18:44:32.263Z,30.10
2019-06-04T18:46:59.765Z,30.00
2019-06-04T18:49:28.677Z,30.00
2019-06-04T18:51:56.363Z,30.00
2019-06-04T18:54:23.968Z,29.90
2019-06-04T18:56:51.525Z,29.90
2019-06-04T18:59:19.023Z,29.80
2019-06-04T19:01:46.562Z,29.80
2019-06-04T19:04:14.144Z,29.70
2019-06-04T19:06:41.669Z,29.60
2019-06-04T19:09:09.083Z,29.60
2019-06-04T19:11:37.237Z,29.60
2019-06-04T19:14:05.037Z,29.50
2019-06-04T19:16:33.829Z,29.50
2019-06-04T19:19:01.535Z,29.40
2019-06-04T19:21:29.077Z,29.40
2019-06-04T19:23:56.638Z,29.30
2019-06-04T19:26:24.259Z,29.30
2019-06-04T19:28:51.806Z,29.10
2019-06-04T19:31:19.380Z,29.20
2019-06-04T19:33:46.908Z,29.10
2019-06-04T19:36:14.495Z,29.20
2019-06-04T19:38:42.513Z,29.00
2019-06-04T19:41:10.007Z,28.90
2019-06-04T19:43:37.699Z,28.90
2019-06-04T19:46:05.202Z,28.80
2019-06-04T19:48:34.043Z,28.70
2019-06-04T19:51:01.721Z,28.70
2019-06-04T19:53:29.350Z,28.60
2019-06-04T19:55:56.993Z,28.60
2019-06-04T19:58:25.867Z,28.30
2019-06-04T20:00:53.538Z,28.40
2019-06-04T20:03:23.662Z,28.40
2019-06-04T20:05:55.750Z,25.70
2019-06-04T20:08:31.819Z,28.30
2019-06-04T20:10:59.381Z,28.10
2019-06-04T20:13:39.093Z,28.10
2019-06-04T20:15:56.526Z,28.10
2019-06-04T20:18:23.983Z,28.00
2019-06-04T20:20:51.393Z,28.00
2019-06-04T20:23:19.015Z,27.90
2019-06-04T20:25:46.591Z,27.90
2019-06-04T20:28:14.509Z,27.80
2019-06-04T20:30:42.828Z,27.80
2019-06-04T20:33:11.083Z,27.70
2019-06-04T20:35:40.709Z,27.80
2019-06-04T20:38:32.850Z,27.50
2019-06-04T20:41:00.695Z,27.50
2019-06-04T20:43:28.696Z,24.80
2019-06-04T20:45:56.256Z,27.40
2019-06-04T20:48:23.962Z,27.40
2019-06-04T20:50:51.728Z,27.40
2019-06-04T20:53:19.628Z,27.30
2019-06-04T20:55:51.479Z,27.30
2019-06-04T20:58:19.909Z,27.40
2019-06-04T21:00:50.045Z,27.10
2019-06-04T21:03:20.109Z,26.50
2019-06-04T21:05:48.932Z,27.20
2019-06-04T21:08:17.194Z,27.00
2019-06-04T21:10:45.406Z,26.80
2019-06-04T21:13:13.315Z,28.20
2019-06-04T21:15:41.030Z,27.10
2019-06-04T21:18:08.699Z,26.90
2019-06-04T21:20:36.248Z,27.10
2019-06-04T21:23:03.876Z,26.80
2019-06-04T21:25:31.332Z,26.80
2019-06-04T21:27:59.056Z,26.70
2019-06-04T21:30:27.005Z,26.70
2019-06-04T21:32:55.181Z,26.60
2019-06-04T21:35:23.176Z,26.60
2019-06-04T21:37:52.204Z,26.50
2019-06-04T21:40:19.816Z,26.50
2019-06-04T21:42:50.450Z,26.50
2019-06-04T21:45:16.826Z,26.50
2019-06-04T21:47:45.294Z,26.40
2019-06-04T21:50:15.322Z,26.40
2019-06-04T21:52:42.820Z,26.40
2019-06-04T21:55:10.529Z,26.30
2019-06-04T21:57:38.007Z,26.30
2019-06-04T22:00:06.621Z,26.20
2019-06-04T22:02:34.704Z,26.20
2019-06-04T22:05:02.423Z,26.10
2019-06-04T22:07:29.873Z,26.10
2019-06-04T22:09:57.365Z,26.10
2019-06-04T22:12:24.817Z,25.90
2019-06-04T22:14:52.328Z,26.00
2019-06-04T22:19:54.759Z,25.90
2019-06-04T22:22:23.291Z,25.90
2019-06-04T22:24:52.054Z,25.90
2019-06-04T22:27:22.209Z,25.70
2019-06-04T22:29:49.751Z,25.80
2019-06-04T22:32:18.600Z,25.80
2019-06-04T22:34:46.056Z,25.70
2019-06-04T22:37:13.587Z,25.70
2019-06-04T22:39:41.023Z,25.70
2019-06-04T22:42:08.454Z,25.60
2019-06-04T22:44:35.834Z,25.60
2019-06-04T22:47:03.281Z,25.60
2019-06-04T22:49:30.760Z,25.50
2019-06-04T22:51:59.717Z,25.50
2019-06-04T22:54:27.455Z,25.50
2019-06-04T22:56:55.078Z,25.50
2019-06-04T22:59:29.846Z,25.40
2019-06-04T23:01:58.184Z,25.40
2019-06-04T23:04:26.156Z,25.40
2019-06-04T23:06:54.418Z,25.40
2019-06-04T23:09:22.511Z,25.80
2019-06-04T23:11:50.063Z,25.30
2019-06-04T23:14:17.476Z,25.30
2019-06-04T23:16:45.066Z,25.30
2019-06-04T23:19:12.523Z,25.30
2019-06-04T23:21:39.833Z,25.20
2019-06-04T23:24:07.213Z,25.20
2019-06-04T23:26:34.612Z,25.20
2019-06-04T23:29:03.675Z,25.10
2019-06-04T23:31:31.213Z,25.10
2019-06-04T23:33:59.048Z,25.10
2019-06-04T23:36:26.663Z,25.10
2019-06-04T23:38:55.277Z,23.50
2019-06-04T23:41:22.851Z,25.00
2019-06-04T23:43:50.377Z,25.10
2019-06-04T23:46:17.895Z,24.90
2019-06-04T23:48:45.412Z,24.90
2019-06-04T23:51:12.810Z,24.90
2019-06-04T23:53:40.137Z,24.80
2019-06-04T23:56:07.620Z,24.80
2019-06-04T23:58:34.993Z,25.20
